Time;durP1;ratioP1;P1;durP2;ratioP2;P2;SDS_P1;SDS_P2;PMS_P1;PMS_P2;Temp;Humidity;BMP_temperature;BMP_pressure;BME280_temperature;BME280_humidity;BME280_pressure;Samples;Min_cycle;Max_cycle;Signal;HPM_P1;HPM_P2
2021/11/29 00:00:17;;;;;;;14.83;8.57;;;3.50;99.90;;;;;;5069567;28;20204;-74
2021/11/29 00:02:47;;;;;;;14.23;7.80;;;3.50;99.90;;;;;;5072362;28;20206;-74
2021/11/29 00:05:15;;;;;;;15.13;8.03;;;3.60;99.90;;;;;;5072336;28;20665;-74
2021/11/29 00:07:42;;;;;;;16.30;8.17;;;3.60;99.90;;;;;;5075285;28;20203;-74
2021/11/29 00:10:09;;;;;;;13.33;7.30;;;3.60;99.90;;;;;;5072619;28;20202;-74
2021/11/29 00:12:36;;;;;;;13.30;7.90;;;3.60;99.90;;;;;;5076571;28;20661;-74
2021/11/29 00:15:06;;;;;;;16.07;7.90;;;3.60;99.90;;;;;;5072056;28;20198;-74
2021/11/29 00:17:33;;;;;;;14.23;8.73;;;3.60;99.90;;;;;;5073560;28;20671;-73
2021/11/29 00:19:59;;;;;;;13.80;8.00;;;3.60;99.90;;;;;;5073030;28;20232;-74
2021/11/29 00:22:26;;;;;;;14.20;7.73;;;3.60;99.90;;;;;;5074099;28;20293;-74
2021/11/29 00:24:53;;;;;;;15.33;7.57;;;3.50;99.90;;;;;;5076841;28;20202;-73
2021/11/29 00:27:20;;;;;;;12.33;7.03;;;3.50;99.90;;;;;;5072181;28;20672;-73
2021/11/29 00:29:47;;;;;;;12.70;6.73;;;3.50;99.90;;;;;;5069872;28;20199;-74
2021/11/29 00:32:15;;;;;;;10.57;6.47;;;3.40;99.90;;;;;;5070790;28;20198;-74
2021/11/29 00:34:42;;;;;;;11.00;6.00;;;3.50;99.90;;;;;;5074124;28;20208;-73
2021/11/29 00:37:09;;;;;;;10.97;6.50;;;3.40;99.90;;;;;;5071179;28;20195;-74
2021/11/29 00:39:36;;;;;;;12.03;6.47;;;3.50;99.90;;;;;;5076261;28;20222;-74
2021/11/29 00:42:03;;;;;;;10.23;6.37;;;3.40;99.90;;;;;;5071877;28;20242;-74
2021/11/29 00:44:30;;;;;;;10.43;6.00;;;3.40;99.90;;;;;;5072630;28;20190;-74
2021/11/29 00:46:58;;;;;;;12.07;6.67;;;3.40;99.90;;;;;;5058848;28;20203;-73
2021/11/29 00:49:26;;;;;;;10.80;6.07;;;3.40;99.90;;;;;;5056697;28;20205;-73
2021/11/29 00:51:53;;;;;;;10.00;5.73;;;3.40;99.90;;;;;;5063528;28;20202;-73
2021/11/29 00:54:20;;;;;;;11.10;6.03;;;3.40;99.90;;;;;;5069573;28;20641;-74
2021/11/29 00:56:47;;;;;;;8.23;5.27;;;3.30;99.90;;;;;;5078491;28;20212;-73
2021/11/29 00:59:13;;;;;;;8.27;5.10;;;3.30;99.90;;;;;;5077719;28;20217;-73
2021/11/29 01:01:40;;;;;;;8.50;5.20;;;3.40;99.90;;;;;;5074049;28;20213;-74
2021/11/29 01:04:07;;;;;;;9.17;5.17;;;3.30;99.90;;;;;;5077868;28;20206;-73
2021/11/29 01:06:35;;;;;;;8.03;5.30;;;3.40;99.90;;;;;;5077104;28;20202;-73
2021/11/29 01:09:03;;;;;;;10.63;4.73;;;3.30;99.90;;;;;;5079546;28;20236;-73
2021/11/29 01:11:30;;;;;;;8.20;4.93;;;3.30;99.90;;;;;;5075979;28;20198;-73
2021/11/29 01:13:57;;;;;;;7.47;5.03;;;3.30;99.90;;;;;;5074045;28;20202;-73
2021/11/29 01:16:24;;;;;;;7.23;5.00;;;3.30;99.90;;;;;;5079197;28;20637;-73
2021/11/29 01:18:51;;;;;;;8.33;4.97;;;3.30;99.90;;;;;;5075880;28;20264;-73
2021/11/29 01:21:18;;;;;;;8.40;4.50;;;3.40;99.90;;;;;;5076059;28;20564;-73
2021/11/29 01:23:47;;;;;;;8.77;5.17;;;3.30;99.90;;;;;;5077429;28;20556;-73
2021/11/29 01:26:14;;;;;;;8.03;4.97;;;3.30;99.90;;;;;;5077116;28;20198;-73
2021/11/29 01:28:41;;;;;;;7.63;5.20;;;3.30;99.90;;;;;;5077365;28;20195;-73
2021/11/29 01:31:09;;;;;;;7.03;4.87;;;3.30;99.90;;;;;;5076988;28;20976;-73
2021/11/29 01:33:36;;;;;;;7.63;5.00;;;3.30;99.90;;;;;;5076314;28;20495;-73
2021/11/29 01:36:03;;;;;;;7.00;4.70;;;3.30;99.90;;;;;;5074535;28;20202;-73
2021/11/29 01:38:30;;;;;;;7.47;5.23;;;3.30;99.90;;;;;;5071925;28;20688;-73
2021/11/29 01:40:58;;;;;;;8.10;4.90;;;3.30;99.90;;;;;;5080554;28;20194;-73
2021/11/29 01:43:25;;;;;;;6.83;4.90;;;3.30;99.90;;;;;;5075140;28;20202;-73
2021/11/29 01:45:54;;;;;;;8.97;4.90;;;3.30;99.90;;;;;;5076349;28;20205;-73
2021/11/29 01:48:22;;;;;;;6.83;4.90;;;3.30;99.90;;;;;;5075373;28;20608;-73
2021/11/29 01:50:51;;;;;;;7.47;4.87;;;3.30;99.90;;;;;;5081050;28;20284;-73
2021/11/29 01:53:20;;;;;;;7.20;4.97;;;3.20;99.90;;;;;;5071161;28;20554;-73
2021/11/29 01:55:49;;;;;;;9.23;4.70;;;3.20;99.90;;;;;;5074178;28;20205;-72
2021/11/29 01:58:18;;;;;;;8.40;5.40;;;3.20;99.90;;;;;;5072713;28;20203;-73
2021/11/29 02:00:49;;;;;;;8.47;4.97;;;3.20;99.90;;;;;;5076632;28;20237;-73
2021/11/29 02:03:17;;;;;;;6.90;4.93;;;3.20;99.90;;;;;;5072340;28;20557;-73
2021/11/29 02:05:44;;;;;;;6.20;4.87;;;3.20;99.90;;;;;;5078257;28;20216;-73
2021/11/29 02:08:11;;;;;;;7.80;5.20;;;3.20;99.90;;;;;;5075785;28;20247;-73
2021/11/29 02:10:38;;;;;;;5.77;4.70;;;3.30;99.90;;;;;;5070485;28;20283;-73
2021/11/29 02:13:05;;;;;;;5.73;4.57;;;3.20;99.90;;;;;;5067611;28;20203;-73
2021/11/29 02:15:34;;;;;;;7.23;4.47;;;3.20;99.90;;;;;;5072010;28;20202;-73
2021/11/29 02:18:01;;;;;;;7.27;4.30;;;3.20;99.90;;;;;;5072629;28;20198;-73
2021/11/29 02:20:32;;;;;;;7.83;4.60;;;3.30;99.90;;;;;;5071470;28;20227;-73
2021/11/29 02:23:01;;;;;;;5.17;3.93;;;3.20;99.90;;;;;;5075808;28;20198;-73
2021/11/29 02:25:28;;;;;;;8.43;4.33;;;3.20;99.90;;;;;;5073163;28;20198;-73
2021/11/29 02:27:56;;;;;;;6.53;4.30;;;3.20;99.90;;;;;;5069029;28;20199;-73
2021/11/29 02:30:25;;;;;;;5.17;4.23;;;3.20;99.90;;;;;;5069400;28;20206;-73
2021/11/29 02:32:53;;;;;;;5.73;4.37;;;3.20;99.90;;;;;;5071753;28;20571;-73
2021/11/29 02:35:21;;;;;;;7.07;4.43;;;3.20;99.90;;;;;;5075751;28;20193;-72
2021/11/29 02:37:50;;;;;;;6.87;3.90;;;3.20;99.90;;;;;;5080037;28;20285;-73
2021/11/29 02:40:17;;;;;;;6.33;4.27;;;3.20;99.90;;;;;;5072402;28;20220;-73
2021/11/29 02:42:43;;;;;;;6.27;4.03;;;3.40;99.90;;;;;;5074515;28;20327;-73
2021/11/29 02:45:10;;;;;;;5.37;4.00;;;3.20;99.90;;;;;;5075899;28;20195;-73
2021/11/29 02:47:37;;;;;;;4.63;4.03;;;3.20;99.90;;;;;;5078286;28;20199;-73
2021/11/29 02:50:05;;;;;;;5.20;4.13;;;3.20;99.90;;;;;;5074207;28;20202;-73
2021/11/29 02:52:32;;;;;;;5.83;3.97;;;3.20;99.90;;;;;;5077366;28;20203;-73
2021/11/29 02:55:00;;;;;;;7.77;4.00;;;3.20;99.90;;;;;;5083143;28;20220;-73
2021/11/29 02:57:27;;;;;;;5.00;3.40;;;3.20;99.90;;;;;;5077594;28;20207;-73
2021/11/29 02:59:54;;;;;;;7.30;3.50;;;3.20;99.90;;;;;;5076583;28;20691;-73
2021/11/29 03:02:22;;;;;;;4.53;3.40;;;3.20;99.90;;;;;;5078051;28;20289;-73
2021/11/29 03:04:49;;;;;;;5.60;3.30;;;3.20;99.90;;;;;;5071331;28;20212;-73
2021/11/29 03:07:17;;;;;;;7.80;3.23;;;3.20;99.90;;;;;;5078260;28;20196;-73
2021/11/29 03:09:45;;;;;;;3.60;3.30;;;3.30;99.90;;;;;;5073745;28;20202;-73
2021/11/29 03:12:14;;;;;;;5.83;3.17;;;3.30;99.90;;;;;;5076280;28;20213;-69
2021/11/29 03:14:41;;;;;;;4.03;3.40;;;3.30;99.90;;;;;;5076620;28;20731;-68
2021/11/29 03:17:08;;;;;;;4.37;3.10;;;3.20;99.90;;;;;;5076905;28;20210;-69
2021/11/29 03:19:37;;;;;;;4.60;3.27;;;3.30;99.90;;;;;;5077750;28;20218;-69
2021/11/29 03:22:06;;;;;;;4.70;3.43;;;3.30;99.90;;;;;;5080690;28;20213;-69
2021/11/29 03:24:33;;;;;;;2.93;2.63;;;3.30;99.90;;;;;;5075328;28;20234;-69
2021/11/29 03:27:00;;;;;;;4.93;2.90;;;3.20;99.90;;;;;;5083908;28;20202;-70
2021/11/29 03:29:28;;;;;;;4.67;3.40;;;3.20;99.90;;;;;;5073563;28;20191;-69
2021/11/29 03:31:58;;;;;;;5.37;3.30;;;3.20;99.90;;;;;;5072474;28;20569;-69
2021/11/29 03:34:25;;;;;;;3.23;2.73;;;3.20;99.90;;;;;;5075678;28;20576;-69
2021/11/29 03:36:52;;;;;;;8.30;3.33;;;3.20;99.90;;;;;;5074287;28;21126;-69
2021/11/29 03:39:22;;;;;;;4.60;3.00;;;3.20;99.90;;;;;;5075978;28;20563;-69
2021/11/29 03:41:50;;;;;;;4.67;2.67;;;3.20;99.90;;;;;;5083594;28;20202;-69
2021/11/29 03:44:18;;;;;;;3.80;2.90;;;3.20;99.90;;;;;;5074907;28;20205;-70
2021/11/29 03:46:48;;;;;;;5.40;3.40;;;3.20;99.90;;;;;;5076346;28;20211;-69
2021/11/29 03:49:15;;;;;;;3.70;3.30;;;3.20;99.90;;;;;;5066819;28;20569;-70
2021/11/29 03:51:42;;;;;;;4.97;3.50;;;3.20;99.90;;;;;;5073001;28;20202;-69
2021/11/29 03:54:09;;;;;;;8.20;4.70;;;3.20;99.90;;;;;;5066645;28;20660;-69
2021/11/29 03:56:36;;;;;;;8.33;4.53;;;3.20;99.90;;;;;;5070817;28;20576;-69
2021/11/29 03:59:04;;;;;;;5.83;3.77;;;3.20;99.90;;;;;;5072018;28;20206;-69
2021/11/29 04:01:33;;;;;;;5.83;3.50;;;3.20;99.90;;;;;;5070173;28;20198;-69
2021/11/29 04:04:01;;;;;;;4.77;2.90;;;3.30;99.90;;;;;;5057317;28;20703;-69
2021/11/29 04:06:28;;;;;;;6.40;3.70;;;3.20;99.90;;;;;;5064994;28;20202;-69
2021/11/29 04:08:56;;;;;;;5.57;3.10;;;3.20;99.90;;;;;;5065182;28;20645;-69
2021/11/29 04:11:23;;;;;;;7.07;3.37;;;3.20;99.90;;;;;;5068503;28;20774;-69
2021/11/29 04:13:50;;;;;;;4.50;3.43;;;3.20;99.90;;;;;;5077112;28;20617;-69
2021/11/29 04:16:17;;;;;;;3.20;2.90;;;3.20;99.90;;;;;;5059999;28;20206;-69
2021/11/29 04:18:45;;;;;;;3.97;3.33;;;3.20;99.90;;;;;;5062165;28;20627;-69
2021/11/29 04:21:14;;;;;;;4.83;3.07;;;3.20;99.90;;;;;;5070929;28;20224;-69
2021/11/29 04:23:44;;;;;;;4.63;2.83;;;3.20;99.90;;;;;;5072583;28;20216;-69
2021/11/29 04:26:13;;;;;;;4.87;3.20;;;3.20;99.90;;;;;;5073347;28;20237;-69
2021/11/29 04:28:40;;;;;;;4.20;2.97;;;3.20;99.90;;;;;;5072635;28;20623;-69
2021/11/29 04:31:07;;;;;;;4.33;3.33;;;3.10;99.90;;;;;;5072770;28;20232;-69
2021/11/29 04:33:34;;;;;;;4.03;2.90;;;3.20;99.90;;;;;;5072605;28;20208;-69
2021/11/29 04:36:01;;;;;;;5.63;3.10;;;3.20;99.90;;;;;;5072561;28;20205;-69
2021/11/29 04:38:29;;;;;;;3.40;3.10;;;3.20;99.90;;;;;;5073753;28;20186;-69
2021/11/29 04:40:56;;;;;;;2.97;2.70;;;3.20;99.90;;;;;;5069257;28;20555;-69
2021/11/29 04:43:23;;;;;;;4.20;2.93;;;3.10;99.90;;;;;;5070235;28;20202;-69
2021/11/29 04:45:50;;;;;;;4.43;3.27;;;3.10;99.90;;;;;;5071007;28;20204;-69
2021/11/29 04:48:17;;;;;;;5.40;3.50;;;3.10;99.90;;;;;;5072521;28;20206;-69
2021/11/29 04:50:44;;;;;;;6.93;3.70;;;3.10;99.90;;;;;;5070079;28;20645;-69
2021/11/29 04:53:11;;;;;;;7.67;4.00;;;3.10;99.90;;;;;;5062294;28;20767;-69
2021/11/29 04:55:39;;;;;;;8.10;4.80;;;3.10;99.90;;;;;;5055257;28;20203;-69
2021/11/29 04:58:06;;;;;;;4.50;3.70;;;3.10;99.90;;;;;;5059832;28;20209;-69
2021/11/29 05:00:33;;;;;;;8.50;3.90;;;3.10;99.90;;;;;;5069973;28;20210;-69
2021/11/29 05:02:59;;;;;;;7.50;4.40;;;3.10;99.90;;;;;;5072128;28;20202;-69
2021/11/29 05:05:26;;;;;;;9.63;4.13;;;3.10;99.90;;;;;;5067834;28;20293;-69
2021/11/29 05:07:53;;;;;;;9.77;4.03;;;3.20;99.90;;;;;;5053390;28;20234;-69
2021/11/29 05:10:20;;;;;;;5.20;4.00;;;3.10;99.90;;;;;;5067793;28;20673;-69
2021/11/29 05:12:48;;;;;;;6.10;3.83;;;3.10;99.90;;;;;;5071451;28;20206;-69
2021/11/29 05:15:15;;;;;;;6.53;4.37;;;3.10;99.90;;;;;;5058266;28;20199;-69
2021/11/29 05:17:42;;;;;;;7.67;4.10;;;3.10;99.90;;;;;;5062788;28;20208;-69
2021/11/29 05:20:10;;;;;;;7.57;3.93;;;3.10;99.90;;;;;;5059710;28;20752;-69
2021/11/29 05:22:37;;;;;;;7.20;4.27;;;3.10;99.90;;;;;;5054844;28;20212;-69
2021/11/29 05:25:04;;;;;;;7.00;3.97;;;3.10;99.90;;;;;;5070054;28;20198;-69
2021/11/29 05:27:31;;;;;;;7.60;4.40;;;3.10;99.90;;;;;;5068396;28;20648;-69
2021/11/29 05:29:59;;;;;;;7.53;4.70;;;3.00;99.90;;;;;;5061810;28;20195;-69
2021/11/29 05:32:26;;;;;;;8.13;4.33;;;3.00;99.90;;;;;;5051665;28;20688;-69
2021/11/29 05:34:53;;;;;;;7.77;5.50;;;3.00;99.90;;;;;;5056950;28;20207;-69
2021/11/29 05:37:21;;;;;;;9.77;6.00;;;3.00;99.90;;;;;;5054928;28;20202;-69
2021/11/29 05:39:47;;;;;;;7.77;4.90;;;3.00;99.90;;;;;;5064391;28;20226;-69
2021/11/29 05:42:14;;;;;;;10.47;5.27;;;3.00;99.90;;;;;;5071712;28;20203;-69
2021/11/29 05:44:41;;;;;;;8.30;5.10;;;3.00;99.90;;;;;;5065731;28;20199;-69
2021/11/29 05:47:09;;;;;;;8.67;5.13;;;3.00;99.90;;;;;;5054814;28;20655;-69
2021/11/29 05:49:36;;;;;;;7.30;4.83;;;3.00;99.90;;;;;;5052791;28;20657;-69
2021/11/29 05:52:04;;;;;;;6.67;4.83;;;3.00;99.90;;;;;;5057334;28;20633;-69
2021/11/29 05:54:31;;;;;;;11.83;5.33;;;3.00;99.90;;;;;;5074885;28;20209;-69
2021/11/29 05:56:57;;;;;;;10.50;6.20;;;3.00;99.90;;;;;;5067320;28;20341;-69
2021/11/29 05:59:25;;;;;;;8.30;5.10;;;2.90;99.90;;;;;;5064236;28;20208;-69
2021/11/29 06:01:51;;;;;;;7.63;5.60;;;3.00;99.90;;;;;;5068916;28;20256;-69
2021/11/29 06:04:20;;;;;;;8.47;5.07;;;3.00;99.90;;;;;;5074317;28;20206;-69
2021/11/29 06:06:47;;;;;;;9.67;5.07;;;3.00;99.90;;;;;;5071526;28;20196;-69
2021/11/29 06:09:14;;;;;;;8.23;5.30;;;3.00;99.90;;;;;;5070939;28;20194;-69
2021/11/29 06:11:41;;;;;;;9.03;5.60;;;3.00;99.90;;;;;;5053691;28;20199;-69
2021/11/29 06:14:08;;;;;;;10.97;5.37;;;3.00;99.90;;;;;;5068793;28;20206;-69
2021/11/29 06:16:35;;;;;;;10.30;4.93;;;3.00;99.90;;;;;;5069578;28;20694;-69
2021/11/29 06:19:02;;;;;;;9.63;5.60;;;3.00;99.90;;;;;;5071765;28;20217;-69
2021/11/29 06:21:30;;;;;;;8.87;5.53;;;3.00;99.90;;;;;;5062725;28;20237;-69
2021/11/29 06:23:57;;;;;;;9.70;5.57;;;3.00;99.90;;;;;;5071490;28;20212;-69
2021/11/29 06:26:24;;;;;;;10.60;6.00;;;3.00;99.90;;;;;;5057867;28;20199;-69
2021/11/29 06:28:51;;;;;;;8.67;5.70;;;3.10;99.90;;;;;;5066340;28;20202;-69
2021/11/29 06:31:18;;;;;;;9.53;5.17;;;3.00;99.90;;;;;;5063427;28;20186;-69
2021/11/29 06:33:45;;;;;;;9.17;5.40;;;3.10;99.90;;;;;;5071607;28;20206;-69
2021/11/29 06:36:13;;;;;;;9.13;5.20;;;3.00;99.90;;;;;;5069967;28;20225;-69
2021/11/29 06:38:42;;;;;;;8.67;5.43;;;3.00;99.90;;;;;;5056313;28;20206;-69
2021/11/29 06:41:09;;;;;;;8.03;5.63;;;3.00;99.90;;;;;;5058042;28;20218;-73
2021/11/29 06:43:36;;;;;;;6.60;4.93;;;3.00;99.90;;;;;;5066005;28;20297;-68
2021/11/29 06:46:03;;;;;;;6.33;4.87;;;3.00;99.90;;;;;;5071374;28;20556;-68
2021/11/29 06:48:30;;;;;;;9.87;5.90;;;3.10;99.90;;;;;;5065398;28;20214;-68
2021/11/29 06:50:57;;;;;;;12.97;5.30;;;3.10;99.90;;;;;;5056984;28;20544;-68
2021/11/29 06:53:24;;;;;;;11.90;6.37;;;3.00;99.90;;;;;;5069080;28;20202;-68
2021/11/29 06:55:55;;;;;;;8.07;5.63;;;3.10;99.90;;;;;;5071538;28;20210;-68
2021/11/29 06:58:22;;;;;;;12.80;5.67;;;3.00;99.90;;;;;;5069097;28;20612;-68
2021/11/29 07:00:50;;;;;;;10.20;6.00;;;3.10;99.90;;;;;;5067152;28;20222;-68
2021/11/29 07:03:17;;;;;;;11.00;5.67;;;3.10;99.90;;;;;;5058474;28;20913;-68
2021/11/29 07:05:44;;;;;;;10.53;5.90;;;3.10;99.90;;;;;;5060152;28;20256;-68
2021/11/29 07:08:11;;;;;;;9.50;6.10;;;3.10;99.90;;;;;;5065363;28;20202;-67
2021/11/29 07:10:41;;;;;;;9.53;5.97;;;3.00;99.90;;;;;;5068550;28;20549;-68
2021/11/29 07:13:10;;;;;;;14.60;6.07;;;3.00;99.90;;;;;;5069019;28;20237;-68
2021/11/29 07:15:38;;;;;;;8.13;5.47;;;3.00;99.90;;;;;;5060943;28;20199;-68
2021/11/29 07:18:05;;;;;;;10.33;6.10;;;3.00;99.90;;;;;;5062305;28;20202;-68
2021/11/29 07:20:32;;;;;;;11.13;6.33;;;3.00;99.90;;;;;;5070437;28;20228;-68
2021/11/29 07:23:00;;;;;;;11.40;5.97;;;3.00;99.90;;;;;;5069939;28;20202;-68
2021/11/29 07:25:27;;;;;;;10.60;5.80;;;3.00;99.90;;;;;;5063991;28;20206;-68
2021/11/29 07:27:54;;;;;;;13.70;6.43;;;3.00;99.90;;;;;;5051827;28;20199;-68
2021/11/29 07:30:27;;;;;;;12.70;6.30;;;3.00;99.90;;;;;;5069284;28;20197;-68
2021/11/29 07:32:55;;;;;;;16.30;6.77;;;3.00;99.90;;;;;;5052266;28;20198;-68
2021/11/29 07:35:23;;;;;;;11.97;6.17;;;3.00;99.90;;;;;;5075260;28;20198;-68
2021/11/29 07:37:50;;;;;;;13.07;6.63;;;3.00;99.90;;;;;;5074696;28;20198;-68
2021/11/29 07:40:18;;;;;;;10.27;5.57;;;3.00;99.90;;;;;;5073480;28;20568;-68
2021/11/29 07:42:45;;;;;;;9.60;6.00;;;3.10;99.90;;;;;;5085367;28;20626;-68
2021/11/29 07:45:12;;;;;;;10.77;7.17;;;3.10;99.90;;;;;;5073116;28;20220;-68
2021/11/29 07:47:42;;;;;;;11.77;6.73;;;3.10;99.90;;;;;;5074025;28;20198;-68
2021/11/29 07:50:12;;;;;;;13.03;7.20;;;3.10;99.90;;;;;;5074788;28;20217;-68
2021/11/29 07:52:39;;;;;;;14.90;6.73;;;3.10;99.90;;;;;;5073695;28;20718;-68
2021/11/29 07:55:09;;;;;;;12.87;6.70;;;3.10;99.90;;;;;;5069754;28;20202;-68
2021/11/29 07:57:36;;;;;;;13.90;7.33;;;3.10;99.90;;;;;;5053979;28;20242;-68
2021/11/29 08:00:05;;;;;;;15.77;8.27;;;3.20;99.90;;;;;;5054166;28;20217;-68
2021/11/29 08:02:33;;;;;;;14.13;7.50;;;3.10;99.90;;;;;;5072261;28;20214;-68
2021/11/29 08:05:01;;;;;;;15.43;7.67;;;3.20;99.90;;;;;;5071961;28;20206;-68
2021/11/29 08:07:29;;;;;;;15.10;7.57;;;3.20;99.90;;;;;;5062036;28;20208;-68
2021/11/29 08:09:57;;;;;;;13.00;7.37;;;3.10;99.90;;;;;;5072008;28;20198;-68
2021/11/29 08:12:24;;;;;;;13.20;7.43;;;3.00;99.90;;;;;;5072249;28;20576;-68
2021/11/29 08:14:53;;;;;;;13.97;7.93;;;3.10;99.90;;;;;;5069052;28;20201;-68
2021/11/29 08:17:20;;;;;;;13.70;7.77;;;3.10;99.90;;;;;;5068853;28;20199;-68
2021/11/29 08:19:47;;;;;;;12.47;7.60;;;3.20;99.90;;;;;;5072535;28;20202;-68
2021/11/29 08:22:16;;;;;;;15.87;8.23;;;3.20;99.90;;;;;;5072490;28;20312;-68
2021/11/29 08:24:43;;;;;;;14.00;7.57;;;3.20;99.90;;;;;;5053232;28;20198;-70
2021/11/29 08:27:10;;;;;;;12.53;6.97;;;3.20;99.90;;;;;;5062442;28;20200;-69
2021/11/29 08:29:38;;;;;;;15.80;7.70;;;3.20;99.90;;;;;;5075266;28;20546;-68
2021/11/29 08:32:05;;;;;;;14.03;7.23;;;3.10;99.90;;;;;;5071700;28;20195;-68
2021/11/29 08:34:34;;;;;;;13.87;7.33;;;3.10;99.90;;;;;;5073298;28;20568;-68
2021/11/29 08:37:01;;;;;;;13.37;6.83;;;3.10;99.90;;;;;;5073015;28;20281;-68
2021/11/29 08:39:29;;;;;;;19.50;8.70;;;3.20;99.90;;;;;;5070551;28;20194;-68
2021/11/29 08:41:56;;;;;;;16.90;9.13;;;3.10;99.90;;;;;;5071889;28;20214;-68
2021/11/29 08:44:23;;;;;;;12.80;7.50;;;3.20;99.90;;;;;;5073988;28;20565;-68
2021/11/29 08:46:51;;;;;;;15.27;7.93;;;3.30;99.90;;;;;;5072681;28;20208;-68
2021/11/29 08:49:18;;;;;;;16.70;9.13;;;3.30;99.90;;;;;;5059282;28;20203;-68
2021/11/29 08:51:47;;;;;;;13.30;7.97;;;3.20;99.90;;;;;;5051431;28;20397;-68
2021/11/29 08:54:15;;;;;;;18.30;9.53;;;3.30;99.90;;;;;;5065423;28;20653;-68
2021/11/29 08:56:45;;;;;;;17.00;8.50;;;3.30;99.90;;;;;;5067414;28;20221;-68
2021/11/29 08:59:13;;;;;;;17.97;8.97;;;3.40;99.90;;;;;;5068162;28;20212;-68
2021/11/29 09:01:40;;;;;;;17.17;9.27;;;3.40;99.90;;;;;;5067514;28;20372;-68
2021/11/29 09:04:07;;;;;;;18.03;9.33;;;3.50;99.90;;;;;;5057533;28;20665;-68
2021/11/29 09:06:33;;;;;;;17.50;9.63;;;3.40;99.90;;;;;;5067035;28;20292;-68
2021/11/29 09:09:00;;;;;;;19.40;9.90;;;3.30;99.90;;;;;;5068149;28;20202;-68
2021/11/29 09:11:27;;;;;;;16.00;8.43;;;3.40;99.90;;;;;;5066479;28;20209;-68
2021/11/29 09:13:56;;;;;;;17.57;8.67;;;3.50;99.90;;;;;;5062183;28;20205;-68
2021/11/29 09:16:23;;;;;;;17.23;9.13;;;3.50;99.90;;;;;;5055607;28;20704;-68
2021/11/29 09:18:50;;;;;;;16.67;8.67;;;3.50;99.90;;;;;;5054732;28;20655;-68
2021/11/29 09:21:19;;;;;;;18.63;8.70;;;3.40;99.90;;;;;;5066669;28;20222;-68
2021/11/29 09:23:47;;;;;;;13.63;8.47;;;3.50;99.90;;;;;;5065153;28;20210;-68
2021/11/29 09:26:15;;;;;;;18.37;11.47;;;3.60;99.90;;;;;;5052624;28;20579;-68
2021/11/29 09:28:42;;;;;;;17.80;9.47;;;3.60;99.90;;;;;;5063178;28;20682;-68
2021/11/29 09:31:11;;;;;;;15.20;9.03;;;3.50;99.90;;;;;;5057984;28;20195;-68
2021/11/29 09:33:39;;;;;;;16.37;8.83;;;3.60;99.90;;;;;;5050417;28;20202;-68
2021/11/29 09:36:07;;;;;;;14.83;9.20;;;3.60;99.90;;;;;;5061152;28;20210;-68
2021/11/29 09:38:34;;;;;;;20.30;12.73;;;3.60;99.90;;;;;;5051096;28;20214;-68
2021/11/29 09:41:02;;;;;;;13.63;7.60;;;3.50;99.90;;;;;;5046331;28;20684;-68
2021/11/29 09:43:29;;;;;;;15.90;8.43;;;3.50;99.90;;;;;;5063149;28;20779;-68
2021/11/29 09:45:56;;;;;;;16.00;8.40;;;3.50;99.90;;;;;;5050210;28;20199;-68
2021/11/29 09:48:24;;;;;;;15.30;8.23;;;3.50;99.90;;;;;;5057106;28;20202;-68
2021/11/29 09:50:54;;;;;;;16.80;8.57;;;3.50;99.90;;;;;;5059374;28;20686;-68
2021/11/29 09:53:24;;;;;;;13.40;7.40;;;3.40;99.90;;;;;;5060214;28;20214;-68
2021/11/29 09:55:51;;;;;;;17.07;9.00;;;3.50;99.90;;;;;;5066262;28;20498;-68
2021/11/29 09:58:18;;;;;;;18.53;10.50;;;3.40;99.90;;;;;;5066079;28;20217;-68
2021/11/29 10:00:49;;;;;;;13.60;7.47;;;3.50;99.90;;;;;;5064437;28;20210;-69
2021/11/29 10:03:17;;;;;;;16.73;9.20;;;3.60;99.90;;;;;;5068413;28;20198;-68
2021/11/29 10:05:45;;;;;;;17.23;9.00;;;3.60;99.90;;;;;;5075329;28;20220;-73
2021/11/29 10:08:20;;;;;;;17.93;9.47;;;3.70;99.90;;;;;;5075688;28;20198;-71
2021/11/29 10:10:50;;;;;;;20.73;11.73;;;3.60;99.90;;;;;;5060621;28;20561;-72
2021/11/29 10:13:17;;;;;;;19.50;8.47;;;3.60;99.90;;;;;;5065722;28;20210;-72
2021/11/29 10:15:45;;;;;;;20.13;9.77;;;3.60;99.90;;;;;;5086032;28;20216;-72
2021/11/29 10:18:14;;;;;;;19.93;11.07;;;3.60;99.90;;;;;;5083688;28;20206;-71
2021/11/29 10:20:52;;;;;;;18.87;9.63;;;3.70;99.90;;;;;;5083264;28;20213;-72
2021/11/29 10:23:27;;;;;;;24.47;12.07;;;3.70;99.90;;;;;;5058771;28;20676;-72
2021/11/29 10:25:54;;;;;;;20.13;9.17;;;3.70;99.90;;;;;;5069058;28;20205;-71
2021/11/29 10:28:28;;;;;;;17.83;9.47;;;3.80;99.90;;;;;;5067104;28;20933;-72
2021/11/29 10:31:17;;;;;;;17.00;9.17;;;3.80;99.90;;;;;;5076833;28;20225;-71
2021/11/29 10:33:49;;;;;;;17.53;9.37;;;3.70;99.90;;;;;;5057630;28;20267;-71
2021/11/29 10:36:19;;;;;;;19.23;9.40;;;3.70;99.90;;;;;;5060011;28;20206;-71
2021/11/29 10:38:50;;;;;;;20.63;9.90;;;3.70;99.90;;;;;;5066116;28;20210;-71
2021/11/29 10:41:22;;;;;;;21.30;9.63;;;3.70;99.90;;;;;;5074298;28;20202;-72
2021/11/29 10:43:49;;;;;;;18.67;9.83;;;3.80;99.90;;;;;;5066090;28;20220;-72
2021/11/29 10:46:25;;;;;;;21.03;10.20;;;3.90;99.90;;;;;;5072560;28;20555;-72
2021/11/29 10:48:55;;;;;;;29.37;14.87;;;3.90;99.90;;;;;;5070736;28;20202;-71
2021/11/29 10:51:25;;;;;;;22.50;11.80;;;3.80;99.90;;;;;;5066256;28;20626;-72
2021/11/29 10:53:58;;;;;;;20.63;10.17;;;3.90;99.90;;;;;;5067069;28;20209;-72
2021/11/29 10:56:28;;;;;;;24.13;11.30;;;3.80;99.90;;;;;;5064654;28;20210;-72
2021/11/29 10:58:58;;;;;;;16.97;8.90;;;3.90;99.90;;;;;;5061179;28;20214;-72
2021/11/29 11:01:38;;;;;;;19.73;10.30;;;3.80;99.90;;;;;;5066516;28;20210;-71
2021/11/29 11:04:07;;;;;;;19.37;9.87;;;3.90;99.90;;;;;;5058962;28;20454;-72
2021/11/29 11:06:37;;;;;;;20.77;11.00;;;4.00;99.90;;;;;;5061419;28;20214;-72
2021/11/29 11:09:12;;;;;;;22.83;11.30;;;3.90;99.90;;;;;;5046328;28;20575;-72
2021/11/29 11:11:42;;;;;;;19.70;10.93;;;3.90;99.90;;;;;;5059583;28;20683;-72
2021/11/29 11:14:12;;;;;;;17.87;9.07;;;4.00;99.90;;;;;;5088524;28;20690;-72
2021/11/29 11:16:51;;;;;;;20.77;10.80;;;4.00;99.90;;;;;;5070171;28;20612;-72
2021/11/29 11:19:24;;;;;;;20.47;10.93;;;4.00;99.90;;;;;;5066815;28;20234;-72
2021/11/29 11:21:58;;;;;;;21.10;11.27;;;3.90;99.90;;;;;;5067978;28;20218;-72
2021/11/29 11:24:29;;;;;;;21.03;11.37;;;3.90;99.90;;;;;;5069126;28;20233;-72
2021/11/29 11:26:58;;;;;;;20.07;10.43;;;4.00;99.90;;;;;;5069604;28;20202;-71
2021/11/29 11:29:35;;;;;;;20.80;10.67;;;3.90;99.90;;;;;;5070906;28;20236;-71
2021/11/29 11:32:10;;;;;;;19.57;10.37;;;3.90;99.90;;;;;;5070990;28;20672;-71
2021/11/29 11:34:38;;;;;;;18.60;9.13;;;4.00;99.90;;;;;;5071137;28;20604;-72
2021/11/29 11:37:07;;;;;;;20.20;10.10;;;4.00;99.90;;;;;;5066019;28;20209;-72
2021/11/29 11:39:34;;;;;;;22.03;9.93;;;3.90;99.90;;;;;;5069075;28;20549;-71
2021/11/29 11:42:02;;;;;;;21.00;10.23;;;4.00;99.90;;;;;;5070633;28;20703;-72
2021/11/29 11:44:29;;;;;;;17.67;8.53;;;4.00;99.90;;;;;;5065252;28;20708;-72
2021/11/29 11:46:57;;;;;;;17.70;8.83;;;4.00;99.90;;;;;;5067074;28;20209;-71
2021/11/29 11:49:24;;;;;;;23.57;10.23;;;4.00;99.90;;;;;;5069298;28;20579;-72
2021/11/29 11:51:51;;;;;;;23.77;12.07;;;4.00;99.90;;;;;;5066518;28;20202;-72
2021/11/29 11:54:19;;;;;;;21.37;9.97;;;3.90;99.90;;;;;;5070738;28;20759;-71
2021/11/29 11:56:46;;;;;;;21.63;10.87;;;4.00;99.90;;;;;;5063626;28;20206;-71
2021/11/29 11:59:15;;;;;;;20.67;9.73;;;4.00;99.90;;;;;;5067191;28;20668;-72
2021/11/29 12:01:45;;;;;;;19.03;9.33;;;4.10;99.90;;;;;;5063884;28;20211;-71
2021/11/29 12:04:13;;;;;;;20.43;9.67;;;4.00;99.90;;;;;;5070401;28;20225;-72
2021/11/29 12:06:42;;;;;;;20.43;10.70;;;4.10;99.90;;;;;;5067480;28;20202;-71
2021/11/29 12:09:12;;;;;;;19.73;9.80;;;4.10;99.90;;;;;;5069338;28;20523;-72
2021/11/29 12:12:02;;;;;;;19.70;10.43;;;4.20;99.90;;;;;;5068419;28;20804;-72
2021/11/29 12:14:34;;;;;;;21.43;10.73;;;4.10;99.90;;;;;;5071170;28;20202;-72
2021/11/29 12:17:16;;;;;;;17.47;8.77;;;4.20;99.90;;;;;;5069783;28;20902;-72
2021/11/29 12:19:45;;;;;;;18.80;10.13;;;4.20;99.90;;;;;;5062487;28;20208;-72
2021/11/29 12:22:35;;;;;;;21.73;9.73;;;4.20;99.90;;;;;;5069089;28;20635;-72
2021/11/29 12:25:16;;;;;;;19.13;9.13;;;4.10;99.90;;;;;;5066762;28;20206;-72
2021/11/29 12:27:48;;;;;;;21.23;9.83;;;4.10;99.90;;;;;;5062909;28;20210;-72
2021/11/29 12:30:30;;;;;;;21.03;9.67;;;4.20;99.90;;;;;;5072009;28;20241;-72
2021/11/29 12:33:02;;;;;;;21.20;9.40;;;4.20;99.90;;;;;;5062362;28;20285;-72
2021/11/29 12:35:36;;;;;;;20.17;9.93;;;4.10;99.90;;;;;;5067496;28;20222;-72
2021/11/29 12:38:09;;;;;;;20.83;10.03;;;4.10;99.90;;;;;;5069250;28;20652;-71
2021/11/29 12:41:05;;;;;;;20.40;8.90;;;4.20;99.90;;;;;;5065877;28;20202;-72
2021/11/29 12:43:37;;;;;;;17.70;8.60;;;4.20;99.90;;;;;;5066853;28;20265;-72
2021/11/29 12:46:21;;;;;;;19.83;9.50;;;4.20;99.90;;;;;;5064170;28;20225;-71
2021/11/29 12:48:48;;;;;;;24.83;11.17;;;4.10;99.90;;;;;;5058779;28;20217;-72
2021/11/29 12:51:15;;;;;;;25.03;12.27;;;4.00;99.90;;;;;;5067799;28;20202;-72
2021/11/29 12:53:42;;;;;;;21.87;10.13;;;4.00;99.90;;;;;;5067482;28;20202;-72
2021/11/29 12:56:20;;;;;;;23.97;10.17;;;4.00;99.90;;;;;;5068230;28;20207;-72